createdAt,value
2023-03-06T00:01:26.339Z,62.64
2023-03-06T00:04:09.607Z,62.90
2023-03-06T00:06:59.386Z,62.82
2023-03-06T00:09:47.642Z,63.76
2023-03-06T00:12:30.370Z,63.93
2023-03-06T00:15:13.694Z,64.73
2023-03-06T00:18:03.383Z,64.85
2023-03-06T00:20:46.194Z,65.21
2023-03-06T00:23:35.407Z,65.33
2023-03-06T00:26:23.717Z,65.83
2023-03-06T00:29:06.355Z,66.21
2023-03-06T00:31:49.092Z,66.01
2023-03-06T00:34:38.344Z,66.33
2023-03-06T00:37:27.610Z,66.61
2023-03-06T00:40:10.415Z,66.01
2023-03-06T00:42:58.753Z,66.71
2023-03-06T00:45:41.433Z,66.35
2023-03-06T00:48:29.866Z,66.49
2023-03-06T00:51:13.997Z,66.61
2023-03-06T00:54:02.656Z,67.01
2023-03-06T00:56:45.370Z,67.42
2023-03-06T00:59:33.604Z,67.65
2023-03-06T01:02:16.362Z,67.78
2023-03-06T01:05:05.389Z,67.54
2023-03-06T01:08:01.181Z,67.86
2023-03-06T01:10:50.386Z,68.01
2023-03-06T01:13:39.456Z,67.64
2023-03-06T01:16:29.641Z,67.51
2023-03-06T01:19:12.509Z,66.35
2023-03-06T01:22:02.428Z,65.58
2023-03-06T01:24:44.663Z,65.21
2023-03-06T01:27:33.364Z,64.92
2023-03-06T01:30:19.627Z,65.27
2023-03-06T01:33:09.320Z,65.51
2023-03-06T01:35:51.744Z,64.85
2023-03-06T01:38:40.403Z,64.45
2023-03-06T01:41:23.678Z,64.43
2023-03-06T01:44:12.345Z,63.97
2023-03-06T01:46:55.680Z,64.53
2023-03-06T01:49:48.379Z,64.68
2023-03-06T01:52:36.641Z,64.34
2023-03-06T01:55:30.417Z,64.68
2023-03-06T01:58:25.424Z,64.97
2023-03-06T02:01:31.246Z,64.78
2023-03-06T02:04:20.314Z,66.71
2023-03-06T02:07:12.435Z,65.10
2023-03-06T02:10:00.579Z,64.44
2023-03-06T02:12:45.383Z,65.70
2023-03-06T02:15:37.380Z,64.02
2023-03-06T02:18:26.488Z,64.80
2023-03-06T02:21:14.908Z,63.85
2023-03-06T02:24:19.357Z,64.22
2023-03-06T02:27:04.369Z,63.31
2023-03-06T02:29:54.404Z,63.04
2023-03-06T02:32:36.629Z,60.90
2023-03-06T02:35:38.466Z,59.05
2023-03-06T02:38:30.334Z,59.59
2023-03-06T02:41:16.682Z,55.73
2023-03-06T02:44:05.444Z,54.90
2023-03-06T02:46:47.656Z,54.92
2023-03-06T02:49:36.648Z,51.27
2023-03-06T02:52:19.639Z,48.68
2023-03-06T02:55:08.367Z,46.93
2023-03-06T02:57:57.386Z,47.55
2023-03-06T03:00:46.328Z,44.95
2023-03-06T03:03:29.688Z,44.74
2023-03-06T03:06:21.441Z,45.29
2023-03-06T03:09:09.691Z,44.26
2023-03-06T03:11:53.381Z,45.40
2023-03-06T03:14:42.429Z,46.05
2023-03-06T03:17:24.705Z,47.21
2023-03-06T03:20:15.379Z,46.59
2023-03-06T03:23:00.643Z,46.08
2023-03-06T03:25:49.382Z,44.21
2023-03-06T03:28:38.274Z,44.20
2023-03-06T03:31:29.462Z,41.97
2023-03-06T03:34:13.028Z,41.76
2023-03-06T03:37:02.420Z,44.10
2023-03-06T03:39:46.674Z,43.97
2023-03-06T03:42:36.328Z,41.41
2023-03-06T03:45:26.348Z,41.95
2023-03-06T03:48:16.591Z,44.79
2023-03-06T03:50:59.711Z,43.19
2023-03-06T03:53:51.676Z,43.42
2023-03-06T03:56:37.408Z,42.12
2023-03-06T03:59:25.683Z,41.87
2023-03-06T04:02:40.381Z,41.47
2023-03-06T04:05:41.419Z,39.79
2023-03-06T04:08:25.750Z,38.44
2023-03-06T04:11:15.396Z,40.12
2023-03-06T04:13:57.647Z,39.70
2023-03-06T04:16:47.311Z,41.39
2023-03-06T04:19:36.398Z,37.60
2023-03-06T04:22:20.570Z,36.63
2023-03-06T04:25:10.402Z,36.27
2023-03-06T04:27:52.595Z,37.75
2023-03-06T04:30:42.424Z,36.79
2023-03-06T04:33:25.714Z,34.18
2023-03-06T04:36:15.378Z,36.79
2023-03-06T04:39:05.749Z,35.40
2023-03-06T04:41:49.391Z,38.83
2023-03-06T04:44:31.714Z,36.66
2023-03-06T04:47:20.434Z,36.96
2023-03-06T04:50:08.667Z,36.84
2023-03-06T04:52:51.438Z,39.94
2023-03-06T04:55:39.668Z,35.37
2023-03-06T04:58:22.700Z,36.61
2023-03-06T05:01:11.714Z,35.39
2023-03-06T05:03:54.309Z,39.31
2023-03-06T05:06:42.657Z,38.42
2023-03-06T05:09:31.367Z,32.98
2023-03-06T05:12:13.618Z,35.21
2023-03-06T05:15:02.412Z,37.58
2023-03-06T05:17:45.669Z,37.85
2023-03-06T05:20:36.418Z,34.40
2023-03-06T05:23:18.622Z,34.42
2023-03-06T05:26:07.288Z,33.67
2023-03-06T05:28:49.814Z,33.20
2023-03-06T05:31:38.416Z,30.83
2023-03-06T05:34:22.621Z,36.13
2023-03-06T05:37:11.411Z,35.10
2023-03-06T05:39:53.670Z,36.16
2023-03-06T05:42:42.346Z,33.35
2023-03-06T05:45:24.613Z,33.17
2023-03-06T05:48:14.413Z,33.24
2023-03-06T05:51:03.727Z,36.77
2023-03-06T05:53:52.410Z,31.91
2023-03-06T05:56:34.909Z,33.58
2023-03-06T05:59:23.384Z,34.61
2023-03-06T06:02:13.534Z,36.04
2023-03-06T06:05:01.635Z,35.52
2023-03-06T06:07:44.307Z,33.88
2023-03-06T06:10:33.626Z,30.05
2023-03-06T06:13:16.359Z,35.09
2023-03-06T06:16:05.400Z,34.32
2023-03-06T06:18:54.339Z,32.03
2023-03-06T06:21:36.601Z,29.92
2023-03-06T06:24:25.361Z,29.65
2023-03-06T06:27:08.292Z,30.75
2023-03-06T06:29:57.365Z,28.60
2023-03-06T06:32:40.214Z,28.75
2023-03-06T06:35:29.396Z,27.75
2023-03-06T06:38:17.585Z,26.83
2023-03-06T06:41:31.171Z,26.79
2023-03-06T06:44:08.766Z,27.23
2023-03-06T06:47:21.897Z,28.37
2023-03-06T06:50:01.347Z,31.18
2023-03-06T06:52:43.826Z,28.36
2023-03-06T06:55:32.446Z,26.93
2023-03-06T06:58:14.650Z,30.18
2023-03-06T07:01:03.402Z,33.39
2023-03-06T07:03:52.363Z,29.27
2023-03-06T07:06:40.713Z,29.94
2023-03-06T07:09:30.321Z,28.34
2023-03-06T07:12:19.399Z,27.80
2023-03-06T07:15:08.052Z,28.49
2023-03-06T07:17:51.419Z,27.46
2023-03-06T07:20:39.574Z,30.01
2023-03-06T07:23:22.353Z,28.04
2023-03-06T07:26:11.383Z,29.07
2023-03-06T07:28:56.486Z,30.86
2023-03-06T07:31:45.405Z,29.05
2023-03-06T07:34:27.982Z,28.93
2023-03-06T07:37:18.349Z,27.09
2023-03-06T07:40:00.763Z,30.14
2023-03-06T07:42:49.392Z,27.58
2023-03-06T07:45:35.696Z,26.49
2023-03-06T07:48:24.332Z,29.77
2023-03-06T07:51:22.350Z,30.67
2023-03-06T07:54:11.632Z,30.16
2023-03-06T07:56:54.407Z,31.20
2023-03-06T07:59:42.656Z,29.90
2023-03-06T08:02:25.328Z,30.66
2023-03-06T08:05:15.692Z,31.01
2023-03-06T08:07:57.355Z,28.21
2023-03-06T08:10:52.407Z,26.96
2023-03-06T08:13:40.701Z,28.75
2023-03-06T08:16:23.311Z,26.61
2023-03-06T08:19:05.600Z,31.26
2023-03-06T08:21:54.356Z,29.02
2023-03-06T08:24:42.612Z,29.94
2023-03-06T08:27:24.358Z,27.49
2023-03-06T08:30:08.020Z,28.67
2023-03-06T08:32:57.396Z,28.94
2023-03-06T08:35:39.537Z,28.54
2023-03-06T08:38:28.348Z,25.85
2023-03-06T08:41:16.569Z,28.80
2023-03-06T08:43:59.335Z,28.34
2023-03-06T08:46:49.397Z,26.92
2023-03-06T08:49:31.721Z,28.80
2023-03-06T08:52:20.405Z,29.09
2023-03-06T08:55:04.594Z,28.00
2023-03-06T08:57:54.377Z,27.18
2023-03-06T09:00:36.687Z,26.05
2023-03-06T09:03:25.494Z,28.40
2023-03-06T09:06:07.613Z,28.46
2023-03-06T09:09:03.304Z,26.93
2023-03-06T09:11:52.754Z,28.62
2023-03-06T09:14:34.610Z,30.20
2023-03-06T09:17:23.486Z,26.08
2023-03-06T09:20:06.488Z,28.44
2023-03-06T09:22:55.353Z,28.27
2023-03-06T09:25:37.615Z,29.69
2023-03-06T09:28:26.424Z,30.62
2023-03-06T09:31:08.672Z,29.62
2023-03-06T09:33:57.309Z,30.35
2023-03-06T09:36:55.549Z,30.30
2023-03-06T09:39:46.394Z,30.81
2023-03-06T09:42:30.682Z,29.33
2023-03-06T09:45:21.496Z,28.93
2023-03-06T09:48:14.703Z,29.83
2023-03-06T09:51:08.305Z,26.32
2023-03-06T09:54:06.226Z,26.01
2023-03-06T09:56:58.307Z,25.68
2023-03-06T09:59:41.674Z,27.90
2023-03-06T10:02:54.411Z,28.52
2023-03-06T10:05:59.895Z,30.70
2023-03-06T10:09:15.355Z,29.85
2023-03-06T10:12:24.582Z,28.86
2023-03-06T10:15:28.452Z,27.09
2023-03-06T10:18:19.736Z,24.07
2023-03-06T10:21:19.121Z,25.58
2023-03-06T10:24:35.618Z,25.64
2023-03-06T10:27:39.414Z,26.99
2023-03-06T10:30:48.784Z,25.67
2023-03-06T10:33:38.316Z,27.88
2023-03-06T10:36:22.544Z,25.13
2023-03-06T10:39:13.353Z,26.06
2023-03-06T10:42:03.586Z,26.04
2023-03-06T10:44:46.361Z,26.88
2023-03-06T10:47:37.982Z,25.94
2023-03-06T10:50:42.635Z,26.45
2023-03-06T10:53:35.692Z,27.23
2023-03-06T10:56:18.305Z,28.66
2023-03-06T10:59:19.663Z,28.62
2023-03-06T11:02:07.335Z,27.13
2023-03-06T11:05:01.074Z,28.72
2023-03-06T11:07:44.331Z,27.31
2023-03-06T11:10:36.449Z,28.30
2023-03-06T11:13:32.620Z,28.01
2023-03-06T11:16:35.560Z,28.97
2023-03-06T11:19:35.345Z,29.35
2023-03-06T11:22:21.035Z,29.52
2023-03-06T11:25:11.325Z,30.72
2023-03-06T11:28:26.525Z,29.56
2023-03-06T11:31:18.948Z,29.35
2023-03-06T11:34:27.399Z,29.12
2023-03-06T11:37:32.045Z,31.24
2023-03-06T11:40:32.682Z,32.04
2023-03-06T11:43:28.668Z,30.64
2023-03-06T11:46:36.361Z,30.84
2023-03-06T11:49:47.411Z,31.93
2023-03-06T11:52:47.845Z,31.26
2023-03-06T11:55:54.349Z,30.86
2023-03-06T11:58:57.310Z,31.15
2023-03-06T12:01:58.603Z,30.21
2023-03-06T12:04:47.302Z,29.62
2023-03-06T12:07:43.205Z,29.60
2023-03-06T12:11:04.292Z,31.03
2023-03-06T12:14:16.178Z,31.55
2023-03-06T12:17:14.410Z,31.09
2023-03-06T12:20:23.287Z,32.94
2023-03-06T12:23:39.315Z,33.15
2023-03-06T12:26:36.618Z,33.45
2023-03-06T12:29:37.386Z,33.33
2023-03-06T12:32:58.636Z,33.16
2023-03-06T12:36:03.397Z,33.29
2023-03-06T12:39:09.622Z,32.52
2023-03-06T12:42:23.400Z,32.80
2023-03-06T12:45:23.557Z,33.31
2023-03-06T12:48:07.336Z,32.81
2023-03-06T12:50:56.666Z,33.31
2023-03-06T12:53:42.351Z,32.77
2023-03-06T12:56:31.398Z,33.11
2023-03-06T12:59:13.602Z,34.39
2023-03-06T13:02:20.378Z,35.27
2023-03-06T13:05:27.383Z,36.92
2023-03-06T13:08:52.274Z,37.48
2023-03-06T13:12:08.290Z,37.43
2023-03-06T13:15:03.699Z,38.94
2023-03-06T13:17:46.382Z,37.77
2023-03-06T13:20:45.948Z,38.60
2023-03-06T13:23:43.320Z,38.80
2023-03-06T13:26:35.650Z,39.72
2023-03-06T13:29:42.846Z,40.51
2023-03-06T13:32:39.886Z,40.17
2023-03-06T13:35:50.414Z,39.26
2023-03-06T13:38:46.347Z,40.28
2023-03-06T13:41:31.749Z,40.31
2023-03-06T13:44:32.354Z,42.93
2023-03-06T13:47:27.766Z,42.58
2023-03-06T13:50:45.308Z,43.79
2023-03-06T13:53:45.974Z,44.21
2023-03-06T13:56:56.357Z,44.39
2023-03-06T14:00:09.660Z,45.02
2023-03-06T14:03:14.411Z,45.26
2023-03-06T14:05:59.954Z,45.43
2023-03-06T14:08:49.331Z,45.86
2023-03-06T14:11:39.767Z,45.38
2023-03-06T14:14:23.392Z,46.30
2023-03-06T14:17:14.724Z,47.17
2023-03-06T14:19:58.423Z,47.00
2023-03-06T14:22:47.633Z,47.38
2023-03-06T14:25:39.389Z,47.72
2023-03-06T14:28:34.782Z,48.65
2023-03-06T14:31:39.419Z,49.03
2023-03-06T14:34:32.492Z,49.12
2023-03-06T14:37:37.399Z,49.37
2023-03-06T14:40:42.563Z,50.03
2023-03-06T14:43:34.801Z,50.72
2023-03-06T14:46:22.568Z,50.21
2023-03-06T14:49:14.673Z,51.55
2023-03-06T14:52:07.565Z,51.25
2023-03-06T14:54:53.617Z,52.13
2023-03-06T14:57:42.291Z,52.70
2023-03-06T15:00:29.817Z,52.76
2023-03-06T15:03:31.521Z,52.65
2023-03-06T15:06:24.352Z,53.13
2023-03-06T15:09:32.369Z,52.99
2023-03-06T15:12:28.894Z,53.91
2023-03-06T15:15:18.477Z,53.89
2023-03-06T15:18:07.859Z,54.06
2023-03-06T15:21:00.593Z,54.36
2023-03-06T15:23:51.270Z,54.08
2023-03-06T15:26:43.879Z,54.35
2023-03-06T15:29:32.770Z,55.06
2023-03-06T15:32:41.732Z,55.00
2023-03-06T15:35:38.399Z,56.33
2023-03-06T15:38:51.344Z,56.30
2023-03-06T15:41:40.043Z,56.15
2023-03-06T15:44:30.651Z,56.45
2023-03-06T15:47:19.844Z,56.96
2023-03-06T15:50:02.469Z,56.59
2023-03-06T15:52:53.291Z,56.88
2023-03-06T15:55:36.268Z,56.63
2023-03-06T15:58:28.190Z,56.23
2023-03-06T16:01:11.363Z,56.02
2023-03-06T16:03:54.608Z,55.83
2023-03-06T16:09:49.381Z,55.89
2023-03-06T16:12:40.055Z,57.05
2023-03-06T16:15:29.774Z,56.27
2023-03-06T16:18:19.699Z,56.78
2023-03-06T16:21:04.016Z,56.58
2023-03-06T16:23:53.880Z,57.19
2023-03-06T16:26:42.399Z,57.16
2023-03-06T16:29:35.311Z,57.27
2023-03-06T16:32:19.870Z,57.80
2023-03-06T16:35:10.214Z,58.27
2023-03-06T16:37:55.916Z,57.65
2023-03-06T16:40:43.015Z,57.82
2023-03-06T16:43:33.337Z,58.43
2023-03-06T16:46:31.084Z,58.00
2023-03-06T16:49:14.923Z,57.52
2023-03-06T16:52:05.911Z,56.95
2023-03-06T16:54:49.999Z,56.52
2023-03-06T16:57:44.045Z,56.35
2023-03-06T17:00:34.824Z,56.54
2023-03-06T17:03:26.006Z,55.99
2023-03-06T17:06:09.960Z,55.16
2023-03-06T17:09:00.958Z,55.11
2023-03-06T17:11:48.358Z,55.56
2023-03-06T17:14:38.893Z,55.42
2023-03-06T17:17:22.769Z,56.17
2023-03-06T17:20:17.022Z,56.30
2023-03-06T17:23:01.363Z,56.98
2023-03-06T17:25:53.168Z,57.47
2023-03-06T17:28:43.811Z,57.80
2023-03-06T17:31:36.651Z,57.83
2023-03-06T17:34:45.378Z,57.91
2023-03-06T17:37:34.372Z,58.20
2023-03-06T17:40:19.642Z,58.36
2023-03-06T17:43:10.019Z,58.49
2023-03-06T17:45:57.324Z,58.88
2023-03-06T17:48:48.291Z,59.26
2023-03-06T17:51:31.723Z,59.26
2023-03-06T17:54:20.348Z,59.01
2023-03-06T17:57:06.509Z,59.32
2023-03-06T17:59:57.798Z,59.67
2023-03-06T18:02:52.224Z,59.47
2023-03-06T18:05:44.086Z,59.46
2023-03-06T18:08:29.632Z,60.11
2023-03-06T18:11:21.068Z,59.11
2023-03-06T18:14:06.007Z,59.22
2023-03-06T18:16:56.897Z,59.12
2023-03-06T18:19:40.986Z,59.51
2023-03-06T18:22:30.599Z,59.86
2023-03-06T18:25:13.592Z,60.07
2023-03-06T18:28:02.308Z,60.00
2023-03-06T18:30:48.296Z,59.20
2023-03-06T18:33:37.986Z,59.46
2023-03-06T18:36:22.237Z,59.69
2023-03-06T18:39:15.914Z,60.38
2023-03-06T18:41:59.043Z,60.47
2023-03-06T18:44:49.732Z,60.80
2023-03-06T18:47:33.605Z,60.39
2023-03-06T18:50:25.909Z,60.47
2023-03-06T18:53:10.584Z,60.75
2023-03-06T18:56:05.108Z,61.22
2023-03-06T18:58:50.599Z,61.34
2023-03-06T19:01:40.768Z,61.25
2023-03-06T19:04:24.924Z,60.91
2023-03-06T19:07:16.526Z,61.12
2023-03-06T19:10:05.961Z,61.62
2023-03-06T19:12:49.972Z,61.83
2023-03-06T19:15:39.689Z,61.65
2023-03-06T19:18:25.412Z,61.76
2023-03-06T19:21:34.668Z,62.01
2023-03-06T19:24:21.805Z,61.92
2023-03-06T19:27:12.723Z,62.04
2023-03-06T19:29:55.322Z,62.06
2023-03-06T19:32:46.882Z,61.76
2023-03-06T19:35:36.006Z,62.10
2023-03-06T19:38:25.992Z,61.70
2023-03-06T19:41:09.322Z,62.26
2023-03-06T19:44:11.676Z,62.22
2023-03-06T19:46:55.088Z,62.31
2023-03-06T19:49:46.971Z,62.45
2023-03-06T19:52:31.017Z,62.39
2023-03-06T19:55:20.269Z,63.08
2023-03-06T19:58:03.944Z,63.24
2023-03-06T20:00:53.766Z,63.28
2023-03-06T20:03:35.898Z,63.24
2023-03-06T20:06:28.627Z,64.11
2023-03-06T20:09:24.231Z,63.92
2023-03-06T20:12:13.389Z,64.45
2023-03-06T20:15:03.461Z,64.55
2023-03-06T20:17:46.891Z,64.48
2023-03-06T20:20:36.930Z,65.31
2023-03-06T20:23:25.725Z,65.02
2023-03-06T20:26:13.497Z,65.37
2023-03-06T20:29:02.513Z,65.38
2023-03-06T20:31:52.271Z,65.20
2023-03-06T20:34:40.848Z,65.80
2023-03-06T20:37:23.363Z,65.33
2023-03-06T20:40:13.529Z,65.90
2023-03-06T20:42:56.350Z,66.01
2023-03-06T20:45:46.837Z,65.88
2023-03-06T20:48:29.300Z,65.75
2023-03-06T20:51:19.636Z,66.37
2023-03-06T20:54:09.333Z,66.59
2023-03-06T20:56:59.048Z,66.72
2023-03-06T20:59:42.306Z,66.67
2023-03-06T21:02:31.236Z,67.22
2023-03-06T21:05:13.908Z,67.52
2023-03-06T21:08:02.285Z,67.88
2023-03-06T21:11:00.324Z,67.44
2023-03-06T21:13:42.561Z,68.07
2023-03-06T21:16:34.279Z,68.39
2023-03-06T21:19:23.280Z,68.37
2023-03-06T21:22:12.259Z,68.50
2023-03-06T21:25:01.837Z,68.71
2023-03-06T21:27:43.665Z,68.86
2023-03-06T21:30:32.323Z,68.56
2023-03-06T21:33:14.632Z,68.77
2023-03-06T21:36:03.327Z,68.49
2023-03-06T21:38:45.631Z,68.70
2023-03-06T21:41:38.373Z,68.31
2023-03-06T21:44:20.883Z,68.67
2023-03-06T21:47:09.350Z,68.83
2023-03-06T21:49:51.616Z,69.19
2023-03-06T21:52:40.321Z,68.36
2023-03-06T21:55:23.652Z,68.79
2023-03-06T21:58:12.287Z,68.50
2023-03-06T22:00:54.593Z,68.96
2023-03-06T22:03:43.312Z,68.92
2023-03-06T22:06:28.544Z,69.11
2023-03-06T22:09:17.269Z,69.77
2023-03-06T22:12:00.032Z,69.54
2023-03-06T22:14:51.226Z,69.71
2023-03-06T22:17:33.604Z,69.59
2023-03-06T22:20:23.270Z,69.42
2023-03-06T22:23:05.600Z,69.25
2023-03-06T22:25:54.291Z,68.92
2023-03-06T22:28:36.585Z,69.12
2023-03-06T22:31:28.338Z,68.90
2023-03-06T22:34:10.555Z,69.08
2023-03-06T22:36:59.239Z,68.78
2023-03-06T22:39:41.556Z,69.34
2023-03-06T22:42:30.536Z,69.37
2023-03-06T22:45:13.666Z,69.66
2023-03-06T22:48:10.497Z,70.04
2023-03-06T22:50:53.568Z,70.35
2023-03-06T22:53:42.283Z,70.28
2023-03-06T22:56:27.524Z,70.26
2023-03-06T22:59:16.260Z,70.44
2023-03-06T23:02:05.297Z,70.73
2023-03-06T23:04:56.511Z,70.88
2023-03-06T23:07:39.256Z,70.82
2023-03-06T23:10:35.143Z,70.71
2023-03-06T23:13:42.309Z,70.83
2023-03-06T23:16:42.535Z,71.13
2023-03-06T23:19:49.284Z,71.17
2023-03-06T23:22:49.574Z,70.83
2023-03-06T23:25:57.273Z,71.16
2023-03-06T23:28:39.528Z,71.58
2023-03-06T23:31:36.264Z,71.36
2023-03-06T23:34:18.532Z,71.42
2023-03-06T23:37:07.343Z,71.14
2023-03-06T23:39:50.547Z,70.81
2023-03-06T23:42:39.494Z,70.91
2023-03-06T23:45:21.520Z,70.96
2023-03-06T23:48:10.289Z,70.91
2023-03-06T23:50:52.594Z,70.69
2023-03-06T23:53:41.339Z,70.98
2023-03-06T23:56:23.600Z,70.39
2023-03-06T23:59:12.266Z,70.74
